Time;durP1;ratioP1;P1;durP2;ratioP2;P2;SDS_P1;SDS_P2;PMS_P1;PMS_P2;Temp;Humidity;BMP_temperature;BMP_pressure;BME280_temperature;BME280_humidity;BME280_pressure;Samples;Min_cycle;Max_cycle;Signal;HPM_P1;HPM_P2
2022/11/03 00:01:18;;;;;;;;;4.00;4.00;;;;;;;;5123337;27;9367;-80
2022/11/03 00:03:45;;;;;;;;;5.00;3.33;;;;;;;;5125536;27;9062;-81
2022/11/03 00:06:13;;;;;;;;;6.33;5.00;;;;;;;;5127859;27;9176;-80
2022/11/03 00:08:42;;;;;;;;;6.33;6.33;;;;;;;;5125490;27;9305;-80
2022/11/03 00:11:12;;;;;;;;;4.33;3.00;;;;;;;;5127985;27;9235;-80
2022/11/03 00:13:41;;;;;;;;;4.00;4.00;;;;;;;;5128591;27;9136;-80
2022/11/03 00:16:10;;;;;;;;;5.67;5.33;;;;;;;;5128804;27;9195;-79
2022/11/03 00:18:39;;;;;;;;;6.00;4.00;;;;;;;;5132108;27;9255;-80
2022/11/03 00:21:08;;;;;;;;;4.00;4.00;;;;;;;;5130606;27;9168;-80
2022/11/03 00:23:37;;;;;;;;;5.00;4.00;;;;;;;;5131285;27;9176;-80
2022/11/03 00:26:08;;;;;;;;;6.33;4.00;;;;;;;;5130929;27;10080;-80
2022/11/03 00:28:36;;;;;;;;;5.00;3.00;;;;;;;;5111352;27;9201;-80
2022/11/03 00:31:09;;;;;;;;;4.00;4.00;;;;;;;;5131062;27;9217;-79
2022/11/03 00:33:38;;;;;;;;;3.00;3.00;;;;;;;;5132414;27;9447;-80
2022/11/03 00:36:07;;;;;;;;;3.00;3.00;;;;;;;;5131867;27;9148;-80
2022/11/03 00:38:36;;;;;;;;;2.67;2.67;;;;;;;;5131847;27;9377;-80
2022/11/03 00:41:05;;;;;;;;;3.00;3.00;;;;;;;;5107149;27;9234;-80
2022/11/03 00:43:34;;;;;;;;;5.00;4.67;;;;;;;;5109954;27;9222;-79
2022/11/03 00:46:02;;;;;;;;;3.00;3.00;;;;;;;;5128298;27;9200;-80
2022/11/03 00:48:29;;;;;;;;;3.67;3.67;;;;;;;;5129812;27;9247;-80
2022/11/03 00:51:09;;;;;;;;;4.00;4.00;;;;;;;;5129177;27;9265;-81
2022/11/03 00:53:39;;;;;;;;;5.33;4.00;;;;;;;;5132539;27;10302;-80
2022/11/03 00:56:08;;;;;;;;;3.00;3.00;;;;;;;;5132144;27;9242;-80
2022/11/03 00:58:35;;;;;;;;;6.33;4.00;;;;;;;;5130864;27;9195;-80
2022/11/03 01:01:06;;;;;;;;;3.00;3.00;;;;;;;;5127192;27;9322;-80
2022/11/03 01:03:35;;;;;;;;;5.33;5.33;;;;;;;;5109924;27;9210;-80
2022/11/03 01:08:51;;;;;;;;;3.00;3.00;;;;;;;;5110620;27;9227;-80
2022/11/03 01:14:05;;;;;;;;;4.33;4.33;;;;;;;;5126391;27;9276;-79
2022/11/03 01:16:33;;;;;;;;;3.00;3.00;;;;;;;;5126077;27;9164;-80
2022/11/03 01:19:01;;;;;;;;;5.00;3.67;;;;;;;;5125401;27;9333;-79
2022/11/03 01:21:30;;;;;;;;;4.67;3.00;;;;;;;;5131555;27;9324;-79
2022/11/03 01:24:01;;;;;;;;;3.33;3.33;;;;;;;;5109431;27;9261;-80
2022/11/03 01:26:29;;;;;;;;;5.00;4.67;;;;;;;;5128139;27;9253;-80
2022/11/03 01:28:56;;;;;;;;;3.00;3.00;;;;;;;;5130177;27;9362;-80
2022/11/03 01:31:25;;;;;;;;;3.00;3.00;;;;;;;;5131142;27;9366;-80
2022/11/03 01:33:55;;;;;;;;;5.00;4.00;;;;;;;;5130900;27;9351;-79
2022/11/03 01:36:23;;;;;;;;;4.00;4.00;;;;;;;;5131080;27;9427;-80
2022/11/03 01:38:52;;;;;;;;;5.00;4.00;;;;;;;;5109757;27;9238;-80
2022/11/03 01:41:21;;;;;;;;;3.33;3.33;;;;;;;;5106904;27;9355;-80
2022/11/03 01:43:52;;;;;;;;;11.33;3.67;;;;;;;;5131124;27;10079;-80
2022/11/03 01:46:23;;;;;;;;;4.00;4.00;;;;;;;;5132306;27;9217;-80
2022/11/03 01:49:02;;;;;;;;;5.33;4.00;;;;;;;;5129304;27;9275;-80
2022/11/03 01:51:31;;;;;;;;;4.00;4.00;;;;;;;;5108598;27;9380;-80
2022/11/03 01:54:04;;;;;;;;;3.00;3.00;;;;;;;;5108549;27;9236;-81
2022/11/03 01:56:34;;;;;;;;;4.00;4.00;;;;;;;;5125034;27;9304;-80
2022/11/03 01:59:01;;;;;;;;;3.00;3.00;;;;;;;;5130094;27;9459;-80
2022/11/03 02:01:30;;;;;;;;;4.67;4.00;;;;;;;;5129817;27;9339;-80
2022/11/03 02:04:02;;;;;;;;;6.33;3.33;;;;;;;;5108773;27;9313;-80
2022/11/03 02:06:29;;;;;;;;;4.00;4.00;;;;;;;;5127939;27;9320;-80
2022/11/03 02:09:02;;;;;;;;;3.00;3.00;;;;;;;;5130958;27;9232;-80
2022/11/03 02:14:15;;;;;;;;;3.67;3.67;;;;;;;;5128304;27;9262;-80
2022/11/03 02:16:47;;;;;;;;;4.00;4.00;;;;;;;;5127142;27;9307;-80
2022/11/03 02:19:22;;;;;;;;;3.33;3.33;;;;;;;;5129835;27;10100;-81
2022/11/03 02:21:57;;;;;;;;;3.33;3.33;;;;;;;;5110279;27;9445;-80
2022/11/03 02:24:34;;;;;;;;;4.00;4.00;;;;;;;;5129011;27;9218;-80
2022/11/03 02:27:03;;;;;;;;;3.00;3.00;;;;;;;;5124310;27;10121;-80
2022/11/03 02:29:31;;;;;;;;;3.00;3.00;;;;;;;;5107996;27;9223;-80
2022/11/03 02:32:04;;;;;;;;;3.00;3.00;;;;;;;;5111201;27;9226;-79
2022/11/03 02:34:38;;;;;;;;;3.00;3.00;;;;;;;;5132966;27;9289;-79
2022/11/03 02:37:10;;;;;;;;;3.00;3.00;;;;;;;;5129816;27;9335;-80
2022/11/03 02:39:42;;;;;;;;;3.00;3.00;;;;;;;;5129350;27;9341;-80
2022/11/03 02:42:12;;;;;;;;;5.00;4.00;;;;;;;;5128942;27;9448;-80
2022/11/03 02:44:40;;;;;;;;;4.67;4.00;;;;;;;;5129916;27;9346;-79
2022/11/03 02:47:10;;;;;;;;;2.33;2.33;;;;;;;;5108232;27;9342;-79
2022/11/03 02:49:40;;;;;;;;;3.00;3.00;;;;;;;;5109331;27;9312;-80
2022/11/03 02:52:23;;;;;;;;;3.00;3.00;;;;;;;;5127074;27;9195;-79
2022/11/03 02:54:51;;;;;;;;;3.00;3.00;;;;;;;;5125100;27;9238;-79
2022/11/03 02:57:24;;;;;;;;;4.00;4.00;;;;;;;;5129658;27;9244;-80
2022/11/03 02:59:56;;;;;;;;;4.00;4.00;;;;;;;;5107344;27;9205;-79
2022/11/03 03:02:31;;;;;;;;;6.33;4.67;;;;;;;;5132381;27;9437;-80
2022/11/03 03:05:02;;;;;;;;;4.67;4.00;;;;;;;;5125691;27;9845;-79
2022/11/03 03:07:34;;;;;;;;;4.67;3.00;;;;;;;;5109177;27;9292;-80
2022/11/03 03:10:05;;;;;;;;;7.00;5.00;;;;;;;;5090508;27;9358;-81
2022/11/03 03:12:39;;;;;;;;;4.33;3.00;;;;;;;;5107276;27;9285;-80
2022/11/03 03:15:08;;;;;;;;;3.00;3.00;;;;;;;;5127025;27;9329;-80
2022/11/03 03:17:43;;;;;;;;;4.67;3.33;;;;;;;;5128076;27;9239;-80
2022/11/03 03:20:14;;;;;;;;;4.00;3.00;;;;;;;;5127297;27;9288;-80
2022/11/03 03:22:46;;;;;;;;;3.00;3.00;;;;;;;;5127086;27;9179;-81
2022/11/03 03:25:16;;;;;;;;;5.33;3.33;;;;;;;;5124805;27;9145;-80
2022/11/03 03:27:49;;;;;;;;;5.33;4.00;;;;;;;;5132318;27;9116;-80
2022/11/03 03:30:17;;;;;;;;;3.33;3.00;;;;;;;;5127892;27;9338;-80
2022/11/03 03:32:49;;;;;;;;;5.33;3.67;;;;;;;;5126307;27;9154;-80
2022/11/03 03:35:20;;;;;;;;;3.00;3.00;;;;;;;;5109789;27;9049;-80
2022/11/03 03:37:52;;;;;;;;;3.00;3.00;;;;;;;;5127277;27;9158;-79
2022/11/03 03:40:23;;;;;;;;;5.00;3.33;;;;;;;;5107405;27;9125;-80
2022/11/03 03:42:53;;;;;;;;;4.00;4.00;;;;;;;;5129739;27;9172;-80
2022/11/03 03:45:21;;;;;;;;;5.67;3.00;;;;;;;;5107738;27;9047;-79
2022/11/03 03:47:49;;;;;;;;;3.67;3.00;;;;;;;;5129319;27;9069;-80
2022/11/03 03:50:17;;;;;;;;;2.00;2.00;;;;;;;;5126344;27;9175;-80
2022/11/03 03:52:44;;;;;;;;;2.33;2.33;;;;;;;;5131281;27;8995;-79
2022/11/03 03:55:17;;;;;;;;;1.33;1.33;;;;;;;;5111755;27;9005;-80
2022/11/03 03:57:45;;;;;;;;;2.00;2.00;;;;;;;;5134635;27;8982;-80
2022/11/03 04:00:18;;;;;;;;;2.00;2.00;;;;;;;;5133125;27;9764;-80
2022/11/03 04:02:45;;;;;;;;;3.33;3.00;;;;;;;;5110768;27;9089;-81
2022/11/03 04:05:13;;;;;;;;;4.00;4.00;;;;;;;;5110182;27;8962;-80
2022/11/03 04:07:50;;;;;;;;;1.33;1.33;;;;;;;;5140164;27;8984;-80
2022/11/03 04:10:20;;;;;;;;;2.33;2.33;;;;;;;;5127845;27;8947;-81
2022/11/03 04:24:05;;;;;;;;;7.00;4.00;;;;;;;;5028897;28;9157;-79
2022/11/03 04:26:32;;;;;;;;;6.00;3.00;;;;;;;;5031608;28;9116;-81
2022/11/03 04:29:02;;;;;;;;;3.00;3.00;;;;;;;;5053359;27;9011;-81
2022/11/03 04:31:35;;;;;;;;;3.33;3.33;;;;;;;;5110571;27;9080;-80
2022/11/03 04:34:05;;;;;;;;;2.00;2.00;;;;;;;;5129035;27;9700;-80
2022/11/03 04:36:32;;;;;;;;;6.00;3.33;;;;;;;;5131549;27;9177;-81
2022/11/03 04:39:00;;;;;;;;;5.00;3.00;;;;;;;;5131900;27;9065;-81
2022/11/03 04:41:32;;;;;;;;;5.00;2.00;;;;;;;;5110579;27;9058;-80
2022/11/03 04:44:00;;;;;;;;;3.67;3.67;;;;;;;;5130739;27;9041;-80
2022/11/03 04:46:29;;;;;;;;;1.00;1.00;;;;;;;;5132228;27;8947;-81
2022/11/03 04:48:59;;;;;;;;;4.00;3.00;;;;;;;;5129582;27;8990;-80
2022/11/03 04:51:29;;;;;;;;;3.00;3.00;;;;;;;;5131381;27;9006;-80
2022/11/03 04:54:05;;;;;;;;;2.00;2.00;;;;;;;;5125020;27;8903;-81
2022/11/03 04:56:33;;;;;;;;;4.00;2.67;;;;;;;;5109314;27;8995;-81
2022/11/03 04:59:00;;;;;;;;;4.33;3.00;;;;;;;;5131598;27;8917;-80
2022/11/03 05:01:28;;;;;;;;;5.00;3.00;;;;;;;;5130519;27;9026;-79
2022/11/03 05:03:57;;;;;;;;;3.00;3.00;;;;;;;;5134009;27;9186;-80
2022/11/03 05:06:28;;;;;;;;;2.33;2.33;;;;;;;;5134291;27;9058;-80
2022/11/03 05:08:58;;;;;;;;;3.00;3.00;;;;;;;;5110749;27;9049;-80
2022/11/03 05:11:31;;;;;;;;;2.00;2.00;;;;;;;;5109708;27;9138;-80
2022/11/03 05:14:00;;;;;;;;;5.67;5.67;;;;;;;;5110851;27;9199;-80
2022/11/03 05:16:28;;;;;;;;;6.00;5.00;;;;;;;;5107845;27;9103;-80
2022/11/03 05:18:58;;;;;;;;;3.00;3.00;;;;;;;;5128858;27;9302;-80
2022/11/03 05:21:28;;;;;;;;;3.00;3.00;;;;;;;;5132012;27;9051;-81
2022/11/03 05:23:58;;;;;;;;;7.00;2.33;;;;;;;;5128871;27;9180;-80
2022/11/03 05:26:28;;;;;;;;;5.00;4.00;;;;;;;;5125954;27;9074;-80
2022/11/03 05:29:00;;;;;;;;;4.00;4.00;;;;;;;;5128301;27;9068;-80
2022/11/03 05:31:30;;;;;;;;;4.33;3.00;;;;;;;;5127747;27;9169;-80
2022/11/03 05:34:01;;;;;;;;;4.33;3.00;;;;;;;;5130529;27;8973;-81
2022/11/03 05:36:31;;;;;;;;;2.00;2.00;;;;;;;;5131044;27;9090;-80
2022/11/03 05:39:01;;;;;;;;;4.33;2.00;;;;;;;;5127418;27;8995;-80
2022/11/03 05:41:32;;;;;;;;;6.00;3.00;;;;;;;;5131007;27;9155;-79
2022/11/03 05:44:02;;;;;;;;;7.33;4.33;;;;;;;;5130811;27;9155;-80
2022/11/03 05:46:32;;;;;;;;;3.33;3.33;;;;;;;;5130554;27;9265;-80
2022/11/03 05:49:03;;;;;;;;;5.00;3.67;;;;;;;;5126857;27;9963;-80
2022/11/03 05:51:35;;;;;;;;;5.00;3.67;;;;;;;;5127420;27;9135;-80
2022/11/03 05:54:04;;;;;;;;;3.67;3.67;;;;;;;;5126869;27;9965;-81
2022/11/03 05:56:33;;;;;;;;;2.00;2.00;;;;;;;;5133087;27;9341;-80
2022/11/03 05:59:00;;;;;;;;;2.00;2.00;;;;;;;;5130717;27;9147;-80
2022/11/03 06:01:30;;;;;;;;;2.33;1.67;;;;;;;;5130234;27;9152;-80
2022/11/03 06:04:02;;;;;;;;;5.67;4.00;;;;;;;;5126235;27;9157;-80
2022/11/03 06:06:33;;;;;;;;;5.00;4.00;;;;;;;;5128883;27;9325;-81
2022/11/03 06:09:03;;;;;;;;;4.00;3.00;;;;;;;;5132444;27;9380;-79
2022/11/03 06:11:35;;;;;;;;;5.00;3.33;;;;;;;;5130008;27;9303;-81
2022/11/03 06:14:11;;;;;;;;;5.33;4.00;;;;;;;;5107397;27;9364;-81
2022/11/03 06:16:41;;;;;;;;;2.00;2.00;;;;;;;;5108994;27;9397;-80
2022/11/03 06:19:30;;;;;;;;;6.67;4.00;;;;;;;;5130205;27;9301;-80
2022/11/03 06:21:59;;;;;;;;;2.67;2.67;;;;;;;;5127203;27;9489;-80
2022/11/03 06:24:30;;;;;;;;;3.25;3.25;;;;;;;;5125957;27;9374;-80
2022/11/03 06:26:59;;;;;;;;;2.00;2.00;;;;;;;;5129672;27;9406;-80
2022/11/03 06:29:28;;;;;;;;;4.75;4.00;;;;;;;;5106490;27;9320;-80
2022/11/03 06:31:57;;;;;;;;;4.33;2.67;;;;;;;;5125671;27;9477;-80
2022/11/03 06:34:35;;;;;;;;;7.00;2.00;;;;;;;;5127571;27;9451;-81
2022/11/03 06:37:11;;;;;;;;;2.00;2.00;;;;;;;;5128539;27;9369;-79
2022/11/03 06:39:40;;;;;;;;;2.00;2.00;;;;;;;;5127854;27;9321;-81
2022/11/03 06:42:13;;;;;;;;;5.67;3.00;;;;;;;;5130255;27;9502;-79
2022/11/03 06:44:42;;;;;;;;;3.67;3.67;;;;;;;;5124538;27;9343;-80
2022/11/03 06:47:21;;;;;;;;;3.00;3.00;;;;;;;;5130438;27;10245;-81
2022/11/03 06:49:51;;;;;;;;;4.50;3.00;;;;;;;;5128041;27;9452;-80
2022/11/03 06:52:25;;;;;;;;;3.33;2.67;;;;;;;;5127528;27;9430;-80
2022/11/03 06:55:00;;;;;;;;;4.50;4.50;;;;;;;;5124031;27;9301;-80
2022/11/03 06:57:28;;;;;;;;;6.67;3.00;;;;;;;;5126416;27;9384;-79
2022/11/03 06:59:56;;;;;;;;;4.75;3.00;;;;;;;;5108913;27;9317;-80
2022/11/03 07:02:46;;;;;;;;;3.00;3.00;;;;;;;;5129236;27;9435;-80
2022/11/03 07:05:22;;;;;;;;;5.33;2.00;;;;;;;;5123947;27;9363;-81
2022/11/03 07:07:50;;;;;;;;;2.00;2.00;;;;;;;;5129057;27;9200;-80
2022/11/03 07:10:18;;;;;;;;;2.00;2.00;;;;;;;;5125981;27;9231;-80
2022/11/03 07:12:46;;;;;;;;;3.33;2.00;;;;;;;;5125007;27;9279;-80
2022/11/03 07:15:24;;;;;;;;;1.33;1.33;;;;;;;;5106289;27;9295;-80
2022/11/03 07:17:52;;;;;;;;;3.33;3.33;;;;;;;;5107969;27;9320;-80
2022/11/03 07:20:22;;;;;;;;;5.33;4.00;;;;;;;;5129572;27;9302;-81
2022/11/03 07:22:50;;;;;;;;;6.00;4.00;;;;;;;;5124648;27;9247;-73
2022/11/03 07:25:20;;;;;;;;;3.00;3.00;;;;;;;;5123075;27;9391;-74
2022/11/03 07:27:49;;;;;;;;;3.50;3.50;;;;;;;;5122158;27;9380;-73
2022/11/03 07:30:20;;;;;;;;;2.67;2.67;;;;;;;;5126164;27;9355;-74
2022/11/03 07:32:50;;;;;;;;;1.00;1.00;;;;;;;;5121846;27;9453;-74
2022/11/03 07:35:29;;;;;;;;;1.00;1.00;;;;;;;;5126147;27;9352;-75
2022/11/03 07:37:57;;;;;;;;;3.00;3.00;;;;;;;;5125425;27;10095;-76
2022/11/03 07:40:26;;;;;;;;;3.00;3.00;;;;;;;;5119534;27;10140;-74
2022/11/03 07:42:58;;;;;;;;;3.00;3.00;;;;;;;;5118803;27;9255;-74
2022/11/03 07:45:36;;;;;;;;;3.33;2.00;;;;;;;;5124788;27;9217;-74
2022/11/03 07:48:20;;;;;;;;;3.00;3.00;;;;;;;;5124478;27;9194;-74
2022/11/03 07:50:51;;;;;;;;;2.33;2.33;;;;;;;;5121333;27;9204;-74
2022/11/03 07:53:22;;;;;;;;;2.33;2.33;;;;;;;;5120438;27;9096;-74
2022/11/03 07:55:50;;;;;;;;;2.00;2.00;;;;;;;;5121721;27;9181;-74
2022/11/03 07:58:26;;;;;;;;;2.33;2.33;;;;;;;;5123752;27;9214;-74
2022/11/03 08:00:57;;;;;;;;;5.00;3.00;;;;;;;;5123700;27;9170;-74
2022/11/03 08:03:41;;;;;;;;;2.33;2.00;;;;;;;;5093635;27;9201;-74
2022/11/03 08:06:10;;;;;;;;;4.00;2.00;;;;;;;;5100572;28;9359;-74
2022/11/03 08:08:38;;;;;;;;;3.00;3.00;;;;;;;;5129628;27;9179;-74
2022/11/03 08:11:06;;;;;;;;;3.00;2.67;;;;;;;;5094774;28;9163;-74
2022/11/03 08:13:33;;;;;;;;;5.33;4.33;;;;;;;;5102963;28;9076;-74
2022/11/03 08:16:01;;;;;;;;;3.00;3.00;;;;;;;;5091960;28;9059;-74
2022/11/03 08:18:28;;;;;;;;;2.00;1.00;;;;;;;;5100283;28;8938;-75
2022/11/03 08:20:56;;;;;;;;;3.00;3.00;;;;;;;;5105652;28;9684;-75
2022/11/03 08:23:25;;;;;;;;;3.00;3.00;;;;;;;;5101256;28;8909;-78
2022/11/03 08:25:52;;;;;;;;;2.00;2.00;;;;;;;;5105637;28;8948;-75
2022/11/03 08:28:20;;;;;;;;;1.00;1.00;;;;;;;;5106113;28;9011;-75
2022/11/03 08:30:47;;;;;;;;;1.00;1.00;;;;;;;;5105490;28;8827;-74
2022/11/03 08:33:15;;;;;;;;;3.50;1.50;;;;;;;;5107915;27;8823;-74
2022/11/03 08:35:43;;;;;;;;;2.00;2.00;;;;;;;;5135110;27;8845;-74
2022/11/03 08:38:10;;;;;;;;;2.25;2.25;;;;;;;;5103290;28;8918;-74
2022/11/03 08:40:39;;;;;;;;;1.75;1.75;;;;;;;;5109023;27;8870;-74
2022/11/03 08:43:07;;;;;;;;;3.25;2.75;;;;;;;;5106480;27;8960;-74
2022/11/03 08:45:34;;;;;;;;;2.00;2.00;;;;;;;;5108794;27;9620;-74
2022/11/03 08:48:02;;;;;;;;;1.50;1.50;;;;;;;;5098500;28;8840;-73
2022/11/03 08:50:30;;;;;;;;;2.50;2.00;;;;;;;;5106982;28;8838;-74
2022/11/03 08:52:57;;;;;;;;;2.00;2.00;;;;;;;;5098657;27;8856;-74
2022/11/03 08:55:25;;;;;;;;;2.00;2.00;;;;;;;;5104788;28;8831;-74
2022/11/03 08:57:54;;;;;;;;;2.25;2.25;;;;;;;;5106798;28;8861;-74
2022/11/03 09:00:23;;;;;;;;;3.00;3.00;;;;;;;;5111524;27;8838;-74
2022/11/03 09:02:50;;;;;;;;;1.00;1.00;;;;;;;;5086030;28;8845;-74
2022/11/03 09:05:18;;;;;;;;;4.75;2.00;;;;;;;;5102917;27;9063;-74
2022/11/03 09:07:48;;;;;;;;;3.00;1.50;;;;;;;;5109103;27;9721;-74
2022/11/03 09:10:16;;;;;;;;;3.00;2.75;;;;;;;;5108617;27;8861;-74
2022/11/03 09:12:43;;;;;;;;;2.25;2.25;;;;;;;;5111609;27;8849;-74
2022/11/03 09:15:12;;;;;;;;;2.00;2.00;;;;;;;;5098164;27;8961;-74
2022/11/03 09:17:40;;;;;;;;;4.50;2.00;;;;;;;;5099299;28;8855;-74
2022/11/03 09:20:08;;;;;;;;;2.75;2.75;;;;;;;;5105081;28;8891;-74
2022/11/03 09:22:36;;;;;;;;;3.50;2.25;;;;;;;;5098168;28;8812;-74
2022/11/03 09:25:04;;;;;;;;;1.75;1.75;;;;;;;;5101604;28;8969;-74
2022/11/03 09:27:32;;;;;;;;;2.00;2.00;;;;;;;;5107850;27;8966;-74
2022/11/03 09:30:00;;;;;;;;;4.00;2.00;;;;;;;;5107521;27;8838;-74
2022/11/03 09:32:28;;;;;;;;;4.25;3.00;;;;;;;;5107865;27;8892;-74
2022/11/03 09:34:56;;;;;;;;;1.00;1.00;;;;;;;;5108030;27;9585;-73
2022/11/03 09:37:23;;;;;;;;;2.00;1.25;;;;;;;;5105294;28;8821;-73
2022/11/03 09:39:51;;;;;;;;;2.25;1.75;;;;;;;;5098405;28;8864;-74
2022/11/03 09:42:19;;;;;;;;;2.00;2.00;;;;;;;;5099671;27;8845;-74
2022/11/03 09:44:49;;;;;;;;;2.00;2.00;;;;;;;;5107693;27;8925;-74
2022/11/03 09:47:23;;;;;;;;;2.00;2.00;;;;;;;;5107195;27;8922;-74
2022/11/03 09:49:52;;;;;;;;;3.00;3.00;;;;;;;;5104369;28;8826;-74
2022/11/03 09:52:23;;;;;;;;;1.75;1.75;;;;;;;;5109712;27;8862;-74
2022/11/03 09:54:53;;;;;;;;;2.00;2.00;;;;;;;;5106966;27;8848;-74
2022/11/03 09:57:20;;;;;;;;;2.00;2.00;;;;;;;;5107393;27;8856;-74
2022/11/03 09:59:50;;;;;;;;;2.00;2.00;;;;;;;;5107789;27;8864;-74
2022/11/03 10:02:24;;;;;;;;;1.50;1.50;;;;;;;;5104363;28;8835;-74
2022/11/03 10:04:54;;;;;;;;;2.00;2.00;;;;;;;;5118214;27;9653;-74
2022/11/03 10:07:22;;;;;;;;;1.75;1.00;;;;;;;;5126186;27;8851;-74
2022/11/03 10:09:51;;;;;;;;;2.75;2.00;;;;;;;;5128346;27;9613;-74
2022/11/03 10:12:19;;;;;;;;;1.75;1.75;;;;;;;;5105438;27;8857;-74
2022/11/03 10:14:47;;;;;;;;;3.75;1.00;;;;;;;;5125915;27;8824;-74
2022/11/03 10:17:17;;;;;;;;;1.75;1.75;;;;;;;;5125098;27;8877;-74
2022/11/03 10:19:45;;;;;;;;;2.50;2.00;;;;;;;;5105731;27;8839;-73
2022/11/03 10:22:14;;;;;;;;;2.00;2.00;;;;;;;;5126243;27;8835;-74
2022/11/03 10:24:42;;;;;;;;;4.00;3.50;;;;;;;;5106868;27;8954;-74
2022/11/03 10:27:22;;;;;;;;;2.25;2.25;;;;;;;;5089876;27;8860;-74
2022/11/03 10:30:07;;;;;;;;;3.00;3.00;;;;;;;;5109908;27;8838;-74
2022/11/03 10:32:35;;;;;;;;;1.50;1.25;;;;;;;;5124145;27;8867;-74
2022/11/03 10:35:04;;;;;;;;;3.75;2.50;;;;;;;;5126652;27;8846;-74
2022/11/03 10:37:36;;;;;;;;;3.00;3.00;;;;;;;;5121656;27;8812;-74
2022/11/03 10:40:03;;;;;;;;;3.00;2.00;;;;;;;;5126551;27;8934;-74
2022/11/03 10:42:32;;;;;;;;;1.25;1.25;;;;;;;;5105797;27;9591;-74
2022/11/03 10:45:12;;;;;;;;;1.25;1.25;;;;;;;;5127496;27;8820;-74
2022/11/03 10:47:39;;;;;;;;;1.25;1.25;;;;;;;;5128280;27;8827;-74
2022/11/03 10:50:21;;;;;;;;;2.50;2.00;;;;;;;;5106524;27;9006;-74
2022/11/03 10:52:50;;;;;;;;;1.50;1.50;;;;;;;;5129370;27;8842;-74
2022/11/03 10:55:19;;;;;;;;;2.00;2.00;;;;;;;;5122803;27;8932;-73
2022/11/03 10:57:47;;;;;;;;;3.00;2.75;;;;;;;;5126224;27;8824;-74
2022/11/03 11:00:16;;;;;;;;;3.75;2.00;;;;;;;;5125694;27;8947;-74
2022/11/03 11:02:45;;;;;;;;;3.00;2.25;;;;;;;;5127948;27;8852;-74
2022/11/03 11:05:17;;;;;;;;;4.50;1.75;;;;;;;;5124178;27;8979;-74
2022/11/03 11:07:46;;;;;;;;;2.00;2.00;;;;;;;;5128551;27;8844;-74
2022/11/03 11:10:18;;;;;;;;;0.50;0.50;;;;;;;;5122277;27;8886;-74
2022/11/03 11:13:23;;;;;;;;;2.00;2.00;;;;;;;;5125989;27;8940;-74
2022/11/03 11:15:52;;;;;;;;;3.25;2.00;;;;;;;;5122269;27;8814;-74
2022/11/03 11:19:00;;;;;;;;;2.00;2.00;;;;;;;;5124733;27;8954;-74
2022/11/03 11:22:06;;;;;;;;;3.00;3.00;;;;;;;;5121983;27;8839;-74
2022/11/03 11:24:56;;;;;;;;;2.00;2.00;;;;;;;;5125645;27;8828;-73
2022/11/03 11:27:59;;;;;;;;;0.00;0.00;;;;;;;;5120815;27;8860;-74
2022/11/03 11:31:03;;;;;;;;;3.00;3.00;;;;;;;;5122014;27;8887;-74
2022/11/03 11:33:33;;;;;;;;;2.25;1.75;;;;;;;;5122367;27;8832;-73
2022/11/03 11:36:27;;;;;;;;;2.25;2.25;;;;;;;;5104387;27;8824;-73
2022/11/03 11:38:59;;;;;;;;;3.00;3.00;;;;;;;;5126410;27;8914;-73
2022/11/03 11:42:04;;;;;;;;;1.75;1.75;;;;;;;;5124037;27;8916;-73
2022/11/03 11:44:58;;;;;;;;;2.50;2.00;;;;;;;;5124916;27;8957;-73
2022/11/03 11:47:45;;;;;;;;;2.00;2.00;;;;;;;;5105173;27;8831;-73
2022/11/03 11:50:34;;;;;;;;;1.75;1.75;;;;;;;;5126210;27;9240;-73
2022/11/03 11:53:14;;;;;;;;;2.75;2.75;;;;;;;;5117738;27;8848;-73
2022/11/03 11:55:44;;;;;;;;;2.50;2.50;;;;;;;;5115492;27;8852;-74
2022/11/03 11:58:30;;;;;;;;;2.50;2.00;;;;;;;;5126421;27;8827;-73
2022/11/03 12:01:04;;;;;;;;;4.00;2.75;;;;;;;;5102582;27;8846;-74
2022/11/03 12:03:44;;;;;;;;;2.50;2.00;;;;;;;;5105098;27;8824;-74
2022/11/03 12:06:13;;;;;;;;;4.00;2.00;;;;;;;;5127201;27;8832;-74
2022/11/03 12:08:41;;;;;;;;;3.25;3.00;;;;;;;;5104570;27;8848;-74
2022/11/03 12:11:15;;;;;;;;;4.00;2.75;;;;;;;;5132045;27;8836;-74
2022/11/03 12:13:46;;;;;;;;;3.75;3.00;;;;;;;;5126502;27;8838;-75
2022/11/03 12:16:31;;;;;;;;;2.50;2.50;;;;;;;;5131702;27;8896;-74
2022/11/03 12:19:33;;;;;;;;;2.00;2.00;;;;;;;;5130544;27;8941;-74
2022/11/03 12:22:01;;;;;;;;;3.00;3.00;;;;;;;;5126679;27;8811;-74
2022/11/03 12:24:51;;;;;;;;;3.25;3.25;;;;;;;;5127496;27;8831;-74
2022/11/03 12:27:39;;;;;;;;;3.00;3.00;;;;;;;;5125114;27;8845;-74
2022/11/03 12:30:14;;;;;;;;;3.25;3.00;;;;;;;;5126704;27;9760;-74
2022/11/03 12:32:43;;;;;;;;;3.75;3.75;;;;;;;;5127682;27;8860;-74
2022/11/03 12:35:12;;;;;;;;;3.50;3.50;;;;;;;;5131088;27;8828;-75
2022/11/03 12:37:40;;;;;;;;;5.00;3.25;;;;;;;;5129313;27;8832;-74
2022/11/03 12:40:09;;;;;;;;;3.75;3.75;;;;;;;;5129377;27;8847;-73
2022/11/03 12:42:37;;;;;;;;;5.00;3.00;;;;;;;;5127579;27;8972;-73
2022/11/03 12:45:06;;;;;;;;;3.75;3.75;;;;;;;;5127307;27;8836;-74
2022/11/03 12:47:33;;;;;;;;;3.75;3.75;;;;;;;;5126582;27;8812;-74
2022/11/03 12:50:03;;;;;;;;;3.00;3.00;;;;;;;;5130302;27;8864;-73
2022/11/03 12:52:30;;;;;;;;;3.00;3.00;;;;;;;;5123998;27;8868;-74
2022/11/03 12:54:58;;;;;;;;;6.00;4.00;;;;;;;;5124728;27;8844;-74
2022/11/03 12:57:26;;;;;;;;;3.00;3.00;;;;;;;;5128368;27;8839;-73
2022/11/03 12:59:54;;;;;;;;;3.00;3.00;;;;;;;;5128586;27;8892;-74
2022/11/03 13:02:21;;;;;;;;;5.00;5.00;;;;;;;;5126770;27;8840;-74
2022/11/03 13:04:49;;;;;;;;;3.25;3.25;;;;;;;;5127429;27;8982;-74
2022/11/03 13:07:18;;;;;;;;;4.00;4.00;;;;;;;;5106415;27;9651;-74
2022/11/03 13:09:47;;;;;;;;;2.75;2.75;;;;;;;;5124595;27;8900;-74
2022/11/03 13:15:03;;;;;;;;;7.50;4.25;;;;;;;;5120872;27;9632;-74
2022/11/03 13:17:31;;;;;;;;;5.00;5.00;;;;;;;;5121741;27;8922;-74
2022/11/03 13:19:58;;;;;;;;;5.50;5.50;;;;;;;;5126624;27;8985;-73
2022/11/03 13:22:27;;;;;;;;;4.25;4.25;;;;;;;;5123437;27;8848;-74
2022/11/03 13:24:55;;;;;;;;;6.75;5.00;;;;;;;;5126502;27;8980;-74
2022/11/03 13:27:23;;;;;;;;;5.25;5.25;;;;;;;;5124718;27;8870;-73
2022/11/03 13:29:50;;;;;;;;;7.50;6.50;;;;;;;;5121121;27;9673;-74
2022/11/03 13:32:18;;;;;;;;;7.25;6.00;;;;;;;;5106568;27;9585;-74
2022/11/03 13:34:46;;;;;;;;;6.75;6.75;;;;;;;;5126941;27;8896;-74
2022/11/03 13:37:14;;;;;;;;;6.67;6.67;;;;;;;;5107309;27;8835;-74
2022/11/03 13:39:43;;;;;;;;;11.33;11.33;;;;;;;;5128315;27;8993;-74
2022/11/03 13:42:11;;;;;;;;;10.00;8.00;;;;;;;;5127703;27;9027;-74
2022/11/03 13:44:38;;;;;;;;;7.00;5.33;;;;;;;;5126243;27;9138;-74
2022/11/03 13:47:07;;;;;;;;;7.00;7.00;;;;;;;;5124334;27;9184;-74
2022/11/03 13:49:35;;;;;;;;;10.33;7.33;;;;;;;;5106047;27;9095;-74
2022/11/03 13:52:03;;;;;;;;;6.67;6.67;;;;;;;;5125491;27;9932;-74
2022/11/03 13:54:30;;;;;;;;;6.33;6.00;;;;;;;;5124566;27;9046;-74
2022/11/03 13:57:00;;;;;;;;;7.33;6.00;;;;;;;;5109709;27;8994;-74
2022/11/03 13:59:28;;;;;;;;;3.67;3.67;;;;;;;;5126657;27;9757;-74
2022/11/03 14:01:55;;;;;;;;;4.00;4.00;;;;;;;;5127254;27;9068;-75
2022/11/03 14:04:23;;;;;;;;;6.33;4.33;;;;;;;;5106437;27;8808;-74
2022/11/03 14:06:52;;;;;;;;;4.75;4.75;;;;;;;;5128148;27;8917;-74
2022/11/03 14:09:20;;;;;;;;;3.67;3.67;;;;;;;;5126155;27;8811;-75
2022/11/03 14:14:34;;;;;;;;;3.33;3.33;;;;;;;;5124337;27;9007;-74
2022/11/03 14:17:01;;;;;;;;;4.00;4.00;;;;;;;;5123345;27;9610;-74
2022/11/03 14:19:29;;;;;;;;;4.00;4.00;;;;;;;;5123855;27;9071;-74
2022/11/03 14:21:57;;;;;;;;;3.00;3.00;;;;;;;;5120314;27;9003;-74
2022/11/03 14:24:26;;;;;;;;;2.00;2.00;;;;;;;;5105383;27;8966;-74
2022/11/03 14:26:54;;;;;;;;;3.00;3.00;;;;;;;;5123204;27;9833;-74
2022/11/03 14:29:22;;;;;;;;;3.00;3.00;;;;;;;;5126774;27;9026;-75
2022/11/03 14:31:51;;;;;;;;;4.00;2.00;;;;;;;;5122663;27;9102;-74
2022/11/03 14:34:19;;;;;;;;;4.33;3.00;;;;;;;;5129011;27;9034;-74
2022/11/03 14:36:46;;;;;;;;;3.00;3.00;;;;;;;;5129508;27;9045;-74
2022/11/03 14:39:14;;;;;;;;;5.00;3.67;;;;;;;;5125504;27;9003;-74
2022/11/03 14:44:27;;;;;;;;;2.50;2.50;;;;;;;;5107052;27;8895;-74
2022/11/03 14:46:57;;;;;;;;;2.00;2.00;;;;;;;;5105013;27;8862;-74
2022/11/03 14:49:24;;;;;;;;;2.00;2.00;;;;;;;;5103255;27;8932;-74
2022/11/03 14:51:53;;;;;;;;;1.50;1.50;;;;;;;;5126517;27;9822;-74
2022/11/03 14:54:21;;;;;;;;;3.00;2.00;;;;;;;;5122536;27;8874;-74
2022/11/03 14:56:49;;;;;;;;;2.33;2.00;;;;;;;;5138077;27;9111;-74
2022/11/03 14:59:17;;;;;;;;;2.00;2.00;;;;;;;;5123865;27;9005;-76
2022/11/03 15:01:45;;;;;;;;;2.00;1.00;;;;;;;;5126992;27;9011;-74
2022/11/03 15:04:14;;;;;;;;;3.00;3.00;;;;;;;;5126233;27;8848;-73
2022/11/03 15:06:43;;;;;;;;;4.33;3.00;;;;;;;;5127524;27;9004;-74
2022/11/03 15:09:13;;;;;;;;;1.67;1.67;;;;;;;;5104961;27;9706;-74
2022/11/03 15:11:41;;;;;;;;;1.00;1.00;;;;;;;;5124588;27;9000;-74
2022/11/03 15:14:09;;;;;;;;;1.67;1.67;;;;;;;;5124399;27;9729;-74
2022/11/03 15:16:37;;;;;;;;;2.67;1.00;;;;;;;;5121690;27;9003;-74
2022/11/03 15:19:05;;;;;;;;;1.67;1.67;;;;;;;;5125094;27;9173;-74
2022/11/03 15:21:35;;;;;;;;;1.33;1.33;;;;;;;;5122266;27;9049;-74
2022/11/03 15:24:03;;;;;;;;;2.00;2.00;;;;;;;;5126477;27;9141;-74
2022/11/03 15:26:31;;;;;;;;;1.00;1.00;;;;;;;;5104781;27;9086;-73
2022/11/03 15:28:58;;;;;;;;;1.00;1.00;;;;;;;;5124648;27;9213;-74
2022/11/03 15:31:27;;;;;;;;;2.00;2.00;;;;;;;;5104786;27;9152;-73
2022/11/03 15:33:55;;;;;;;;;1.00;1.00;;;;;;;;5126576;27;9230;-74
2022/11/03 15:36:23;;;;;;;;;3.33;2.00;;;;;;;;5123439;27;9286;-74
2022/11/03 15:38:52;;;;;;;;;4.00;4.00;;;;;;;;5127610;27;9132;-74
2022/11/03 15:41:20;;;;;;;;;2.00;2.00;;;;;;;;5123284;27;9224;-74
2022/11/03 15:43:49;;;;;;;;;5.00;3.67;;;;;;;;5122586;27;9297;-74
2022/11/03 15:46:18;;;;;;;;;5.00;3.67;;;;;;;;5126799;27;9526;-74